sensor_id;sensor_type;location;lat;lon;timestamp;P1;durP1;ratioP1;P2;durP2;ratioP2
70414;SDS011;57837;52.064;113.478;2024-03-02T00:02:25;10.95;;;5.85;;
70414;SDS011;57837;52.064;113.478;2024-03-02T00:05:28;9.98;;;6.22;;
70414;SDS011;57837;52.064;113.478;2024-03-02T00:08:32;17.70;;;6.95;;
70414;SDS011;57837;52.064;113.478;2024-03-02T00:11:36;23.60;;;9.07;;
70414;SDS011;57837;52.064;113.478;2024-03-02T00:14:39;15.57;;;7.17;;
70414;SDS011;57837;52.064;113.478;2024-03-02T00:17:44;21.60;;;8.68;;
70414;SDS011;57837;52.064;113.478;2024-03-02T00:20:48;24.25;;;9.52;;
70414;SDS011;57837;52.064;113.478;2024-03-02T00:23:53;21.73;;;9.93;;
70414;SDS011;57837;52.064;113.478;2024-03-02T00:26:56;18.65;;;10.68;;
70414;SDS011;57837;52.064;113.478;2024-03-02T00:30:00;20.20;;;11.57;;
70414;SDS011;57837;52.064;113.478;2024-03-02T00:33:08;20.83;;;11.50;;
70414;SDS011;57837;52.064;113.478;2024-03-02T00:36:12;27.77;;;12.88;;
70414;SDS011;57837;52.064;113.478;2024-03-02T00:39:18;40.38;;;17.92;;
70414;SDS011;57837;52.064;113.478;2024-03-02T00:42:22;37.60;;;17.33;;
70414;SDS011;57837;52.064;113.478;2024-03-02T00:45:26;24.87;;;12.53;;
70414;SDS011;57837;52.064;113.478;2024-03-02T00:48:30;34.90;;;17.15;;
70414;SDS011;57837;52.064;113.478;2024-03-02T00:51:40;64.82;;;28.77;;
70414;SDS011;57837;52.064;113.478;2024-03-02T00:54:45;71.53;;;30.13;;
70414;SDS011;57837;52.064;113.478;2024-03-02T00:57:48;111.47;;;41.35;;
70414;SDS011;57837;52.064;113.478;2024-03-02T01:00:51;135.52;;;50.90;;
70414;SDS011;57837;52.064;113.478;2024-03-02T01:03:54;129.27;;;48.08;;
70414;SDS011;57837;52.064;113.478;2024-03-02T01:06:57;118.00;;;43.13;;
70414;SDS011;57837;52.064;113.478;2024-03-02T01:10:01;100.03;;;36.78;;
70414;SDS011;57837;52.064;113.478;2024-03-02T01:13:06;97.15;;;36.03;;
70414;SDS011;57837;52.064;113.478;2024-03-02T01:16:10;86.70;;;34.27;;
70414;SDS011;57837;52.064;113.478;2024-03-02T01:19:13;99.97;;;37.22;;
70414;SDS011;57837;52.064;113.478;2024-03-02T01:22:17;95.18;;;34.22;;
70414;SDS011;57837;52.064;113.478;2024-03-02T01:25:25;69.43;;;27.00;;
70414;SDS011;57837;52.064;113.478;2024-03-02T01:28:28;42.90;;;18.95;;
70414;SDS011;57837;52.064;113.478;2024-03-02T01:31:32;49.33;;;18.10;;
70414;SDS011;57837;52.064;113.478;2024-03-02T01:34:35;57.25;;;19.75;;
70414;SDS011;57837;52.064;113.478;2024-03-02T01:37:39;60.13;;;20.45;;
70414;SDS011;57837;52.064;113.478;2024-03-02T01:40:43;80.35;;;29.40;;
70414;SDS011;57837;52.064;113.478;2024-03-02T01:43:50;68.03;;;25.13;;
70414;SDS011;57837;52.064;113.478;2024-03-02T01:46:53;68.07;;;27.40;;
70414;SDS011;57837;52.064;113.478;2024-03-02T01:49:56;53.92;;;19.75;;
70414;SDS011;57837;52.064;113.478;2024-03-02T01:53:01;40.20;;;15.45;;
70414;SDS011;57837;52.064;113.478;2024-03-02T01:56:08;54.53;;;20.63;;
70414;SDS011;57837;52.064;113.478;2024-03-02T01:59:11;39.20;;;14.93;;
70414;SDS011;57837;52.064;113.478;2024-03-02T02:02:16;27.08;;;11.75;;
70414;SDS011;57837;52.064;113.478;2024-03-02T02:05:20;49.38;;;17.92;;
70414;SDS011;57837;52.064;113.478;2024-03-02T02:08:23;42.03;;;17.02;;
70414;SDS011;57837;52.064;113.478;2024-03-02T02:11:26;40.92;;;14.70;;
70414;SDS011;57837;52.064;113.478;2024-03-02T02:14:30;31.92;;;12.00;;
70414;SDS011;57837;52.064;113.478;2024-03-02T02:17:34;36.73;;;14.33;;
70414;SDS011;57837;52.064;113.478;2024-03-02T02:20:37;34.97;;;13.13;;
70414;SDS011;57837;52.064;113.478;2024-03-02T02:23:40;39.83;;;16.90;;
70414;SDS011;57837;52.064;113.478;2024-03-02T02:26:48;45.83;;;18.37;;
70414;SDS011;57837;52.064;113.478;2024-03-02T02:29:51;32.55;;;13.80;;
70414;SDS011;57837;52.064;113.478;2024-03-02T02:32:54;21.42;;;8.73;;
70414;SDS011;57837;52.064;113.478;2024-03-02T02:35:59;12.05;;;5.93;;
70414;SDS011;57837;52.064;113.478;2024-03-02T02:39:03;34.25;;;16.30;;
70414;SDS011;57837;52.064;113.478;2024-03-02T02:42:07;18.15;;;7.40;;
70414;SDS011;57837;52.064;113.478;2024-03-02T02:45:11;25.25;;;9.57;;
70414;SDS011;57837;52.064;113.478;2024-03-02T02:48:17;25.00;;;9.10;;
70414;SDS011;57837;52.064;113.478;2024-03-02T02:51:22;27.42;;;11.25;;
70414;SDS011;57837;52.064;113.478;2024-03-02T02:54:27;32.70;;;11.00;;
70414;SDS011;57837;52.064;113.478;2024-03-02T02:57:34;20.00;;;8.70;;
70414;SDS011;57837;52.064;113.478;2024-03-02T03:00:39;24.75;;;9.45;;
70414;SDS011;57837;52.064;113.478;2024-03-02T03:03:45;27.27;;;8.13;;
70414;SDS011;57837;52.064;113.478;2024-03-02T03:06:48;18.77;;;7.28;;
70414;SDS011;57837;52.064;113.478;2024-03-02T03:09:52;19.90;;;7.53;;
70414;SDS011;57837;52.064;113.478;2024-03-02T03:12:55;12.80;;;5.78;;
70414;SDS011;57837;52.064;113.478;2024-03-02T03:15:59;10.88;;;5.03;;
70414;SDS011;57837;52.064;113.478;2024-03-02T03:19:03;14.75;;;5.00;;
70414;SDS011;57837;52.064;113.478;2024-03-02T03:22:08;9.50;;;4.07;;
70414;SDS011;57837;52.064;113.478;2024-03-02T03:25:11;10.15;;;4.00;;
70414;SDS011;57837;52.064;113.478;2024-03-02T03:28:14;18.35;;;6.25;;
70414;SDS011;57837;52.064;113.478;2024-03-02T03:31:17;12.18;;;3.88;;
70414;SDS011;57837;52.064;113.478;2024-03-02T03:34:21;14.63;;;6.27;;
70414;SDS011;57837;52.064;113.478;2024-03-02T03:37:25;14.27;;;5.30;;
70414;SDS011;57837;52.064;113.478;2024-03-02T03:40:37;8.05;;;3.78;;
70414;SDS011;57837;52.064;113.478;2024-03-02T03:43:40;15.70;;;5.55;;
70414;SDS011;57837;52.064;113.478;2024-03-02T03:46:44;14.10;;;4.70;;
70414;SDS011;57837;52.064;113.478;2024-03-02T03:49:48;15.35;;;6.50;;
70414;SDS011;57837;52.064;113.478;2024-03-02T03:52:52;15.30;;;5.80;;
70414;SDS011;57837;52.064;113.478;2024-03-02T03:55:55;18.33;;;5.80;;
70414;SDS011;57837;52.064;113.478;2024-03-02T03:58:59;10.57;;;4.00;;
70414;SDS011;57837;52.064;113.478;2024-03-02T04:02:03;7.97;;;3.72;;
70414;SDS011;57837;52.064;113.478;2024-03-02T04:05:07;9.13;;;3.88;;
70414;SDS011;57837;52.064;113.478;2024-03-02T04:08:14;12.93;;;4.87;;
70414;SDS011;57837;52.064;113.478;2024-03-02T04:11:18;4.32;;;2.47;;
70414;SDS011;57837;52.064;113.478;2024-03-02T04:14:22;11.55;;;4.82;;
70414;SDS011;57837;52.064;113.478;2024-03-02T04:17:25;13.60;;;4.23;;
70414;SDS011;57837;52.064;113.478;2024-03-02T04:20:29;12.90;;;4.28;;
70414;SDS011;57837;52.064;113.478;2024-03-02T04:23:32;20.02;;;3.45;;
70414;SDS011;57837;52.064;113.478;2024-03-02T04:26:36;8.90;;;3.88;;
70414;SDS011;57837;52.064;113.478;2024-03-02T04:29:40;12.27;;;5.03;;
70414;SDS011;57837;52.064;113.478;2024-03-02T04:32:42;10.05;;;3.97;;
70414;SDS011;57837;52.064;113.478;2024-03-02T04:35:48;10.18;;;3.28;;
70414;SDS011;57837;52.064;113.478;2024-03-02T04:38:51;16.30;;;4.40;;
70414;SDS011;57837;52.064;113.478;2024-03-02T04:41:56;9.55;;;4.03;;
70414;SDS011;57837;52.064;113.478;2024-03-02T04:44:59;14.10;;;5.55;;
70414;SDS011;57837;52.064;113.478;2024-03-02T04:48:03;7.78;;;2.75;;
70414;SDS011;57837;52.064;113.478;2024-03-02T04:51:07;8.75;;;2.92;;
70414;SDS011;57837;52.064;113.478;2024-03-02T04:54:10;14.77;;;4.68;;
70414;SDS011;57837;52.064;113.478;2024-03-02T04:57:14;13.88;;;6.60;;
70414;SDS011;57837;52.064;113.478;2024-03-02T05:00:18;6.80;;;3.17;;
70414;SDS011;57837;52.064;113.478;2024-03-02T05:03:22;16.73;;;5.50;;
70414;SDS011;57837;52.064;113.478;2024-03-02T05:06:25;17.63;;;4.28;;
70414;SDS011;57837;52.064;113.478;2024-03-02T05:09:28;15.30;;;3.70;;
70414;SDS011;57837;52.064;113.478;2024-03-02T05:12:32;19.98;;;4.55;;
70414;SDS011;57837;52.064;113.478;2024-03-02T05:15:47;13.43;;;4.80;;
70414;SDS011;57837;52.064;113.478;2024-03-02T05:18:50;7.05;;;3.03;;
70414;SDS011;57837;52.064;113.478;2024-03-02T05:21:53;6.10;;;3.47;;
70414;SDS011;57837;52.064;113.478;2024-03-02T05:24:56;13.57;;;5.15;;
70414;SDS011;57837;52.064;113.478;2024-03-02T05:28:02;9.73;;;4.57;;
70414;SDS011;57837;52.064;113.478;2024-03-02T05:31:06;14.00;;;4.43;;
70414;SDS011;57837;52.064;113.478;2024-03-02T05:34:13;16.90;;;4.80;;
70414;SDS011;57837;52.064;113.478;2024-03-02T05:37:17;20.13;;;4.10;;
70414;SDS011;57837;52.064;113.478;2024-03-02T05:40:21;9.13;;;3.70;;
70414;SDS011;57837;52.064;113.478;2024-03-02T05:43:25;9.75;;;4.43;;
70414;SDS011;57837;52.064;113.478;2024-03-02T05:46:28;8.77;;;3.55;;
70414;SDS011;57837;52.064;113.478;2024-03-02T05:49:31;9.20;;;3.35;;
70414;SDS011;57837;52.064;113.478;2024-03-02T05:52:34;9.07;;;4.20;;
70414;SDS011;57837;52.064;113.478;2024-03-02T05:55:37;7.50;;;3.90;;
70414;SDS011;57837;52.064;113.478;2024-03-02T05:58:41;8.63;;;3.35;;
70414;SDS011;57837;52.064;113.478;2024-03-02T06:02:03;9.33;;;2.97;;
70414;SDS011;57837;52.064;113.478;2024-03-02T06:05:06;8.93;;;3.65;;
70414;SDS011;57837;52.064;113.478;2024-03-02T06:08:10;12.55;;;4.22;;
70414;SDS011;57837;52.064;113.478;2024-03-02T06:11:13;7.50;;;3.43;;
70414;SDS011;57837;52.064;113.478;2024-03-02T06:14:16;5.38;;;2.53;;
70414;SDS011;57837;52.064;113.478;2024-03-02T06:17:20;9.23;;;3.72;;
70414;SDS011;57837;52.064;113.478;2024-03-02T06:20:23;12.63;;;3.65;;
70414;SDS011;57837;52.064;113.478;2024-03-02T06:23:26;12.48;;;3.95;;
70414;SDS011;57837;52.064;113.478;2024-03-02T06:26:30;9.27;;;3.67;;
70414;SDS011;57837;52.064;113.478;2024-03-02T06:29:34;9.32;;;3.85;;
70414;SDS011;57837;52.064;113.478;2024-03-02T06:32:38;8.53;;;3.30;;
70414;SDS011;57837;52.064;113.478;2024-03-02T06:35:41;6.03;;;2.63;;
70414;SDS011;57837;52.064;113.478;2024-03-02T06:38:44;13.63;;;4.18;;
70414;SDS011;57837;52.064;113.478;2024-03-02T06:41:47;7.25;;;3.80;;
70414;SDS011;57837;52.064;113.478;2024-03-02T06:44:50;5.22;;;2.65;;
70414;SDS011;57837;52.064;113.478;2024-03-02T06:47:53;7.15;;;3.95;;
70414;SDS011;57837;52.064;113.478;2024-03-02T06:50:56;15.07;;;4.03;;
70414;SDS011;57837;52.064;113.478;2024-03-02T06:54:00;9.43;;;3.40;;
70414;SDS011;57837;52.064;113.478;2024-03-02T06:57:03;13.50;;;5.10;;
70414;SDS011;57837;52.064;113.478;2024-03-02T07:00:06;13.90;;;5.03;;
70414;SDS011;57837;52.064;113.478;2024-03-02T07:03:11;5.80;;;3.40;;
70414;SDS011;57837;52.064;113.478;2024-03-02T07:06:15;6.20;;;2.60;;
70414;SDS011;57837;52.064;113.478;2024-03-02T07:09:18;14.85;;;4.15;;
70414;SDS011;57837;52.064;113.478;2024-03-02T07:12:26;12.20;;;4.63;;
70414;SDS011;57837;52.064;113.478;2024-03-02T07:15:29;14.48;;;5.53;;
70414;SDS011;57837;52.064;113.478;2024-03-02T07:18:47;15.90;;;5.95;;
70414;SDS011;57837;52.064;113.478;2024-03-02T07:21:54;12.35;;;4.75;;
70414;SDS011;57837;52.064;113.478;2024-03-02T07:24:58;13.93;;;4.53;;
70414;SDS011;57837;52.064;113.478;2024-03-02T07:28:02;10.98;;;3.92;;
70414;SDS011;57837;52.064;113.478;2024-03-02T07:31:07;19.05;;;5.10;;
70414;SDS011;57837;52.064;113.478;2024-03-02T07:34:10;23.27;;;6.73;;
70414;SDS011;57837;52.064;113.478;2024-03-02T07:37:13;12.82;;;4.72;;
70414;SDS011;57837;52.064;113.478;2024-03-02T07:40:16;11.52;;;4.55;;
70414;SDS011;57837;52.064;113.478;2024-03-02T07:43:21;18.85;;;6.32;;
70414;SDS011;57837;52.064;113.478;2024-03-02T07:46:25;13.18;;;5.13;;
70414;SDS011;57837;52.064;113.478;2024-03-02T07:49:29;15.77;;;5.38;;
70414;SDS011;57837;52.064;113.478;2024-03-02T07:52:33;13.05;;;4.65;;
70414;SDS011;57837;52.064;113.478;2024-03-02T07:55:36;14.10;;;5.10;;
70414;SDS011;57837;52.064;113.478;2024-03-02T07:58:40;10.77;;;4.53;;
70414;SDS011;57837;52.064;113.478;2024-03-02T08:01:46;14.77;;;5.75;;
70414;SDS011;57837;52.064;113.478;2024-03-02T08:04:49;11.80;;;4.30;;
70414;SDS011;57837;52.064;113.478;2024-03-02T08:07:54;12.73;;;5.65;;
70414;SDS011;57837;52.064;113.478;2024-03-02T08:10:57;13.90;;;5.28;;
70414;SDS011;57837;52.064;113.478;2024-03-02T08:14:03;17.02;;;8.57;;
70414;SDS011;57837;52.064;113.478;2024-03-02T08:17:07;14.95;;;5.30;;
70414;SDS011;57837;52.064;113.478;2024-03-02T08:20:12;14.75;;;6.97;;
70414;SDS011;57837;52.064;113.478;2024-03-02T08:23:16;19.48;;;7.10;;
70414;SDS011;57837;52.064;113.478;2024-03-02T08:26:20;16.13;;;5.03;;
70414;SDS011;57837;52.064;113.478;2024-03-02T08:29:25;8.70;;;4.80;;
70414;SDS011;57837;52.064;113.478;2024-03-02T08:32:29;14.00;;;3.38;;
70414;SDS011;57837;52.064;113.478;2024-03-02T08:35:32;10.60;;;4.60;;
70414;SDS011;57837;52.064;113.478;2024-03-02T08:38:39;17.02;;;6.05;;
70414;SDS011;57837;52.064;113.478;2024-03-02T08:41:46;11.98;;;3.85;;
70414;SDS011;57837;52.064;113.478;2024-03-02T08:44:51;13.15;;;4.68;;
70414;SDS011;57837;52.064;113.478;2024-03-02T08:47:55;11.18;;;4.13;;
70414;SDS011;57837;52.064;113.478;2024-03-02T08:50:58;12.80;;;5.55;;
70414;SDS011;57837;52.064;113.478;2024-03-02T08:54:01;27.70;;;7.28;;
70414;SDS011;57837;52.064;113.478;2024-03-02T08:57:05;19.53;;;6.37;;
70414;SDS011;57837;52.064;113.478;2024-03-02T09:00:09;15.38;;;5.45;;
70414;SDS011;57837;52.064;113.478;2024-03-02T09:03:13;20.27;;;8.35;;
70414;SDS011;57837;52.064;113.478;2024-03-02T09:06:18;32.63;;;10.27;;
70414;SDS011;57837;52.064;113.478;2024-03-02T09:09:23;21.63;;;7.65;;
70414;SDS011;57837;52.064;113.478;2024-03-02T09:12:27;24.33;;;7.50;;
70414;SDS011;57837;52.064;113.478;2024-03-02T09:15:32;20.20;;;8.32;;
70414;SDS011;57837;52.064;113.478;2024-03-02T09:18:38;16.77;;;6.72;;
70414;SDS011;57837;52.064;113.478;2024-03-02T09:21:42;19.25;;;5.47;;
70414;SDS011;57837;52.064;113.478;2024-03-02T09:24:47;20.42;;;6.32;;
70414;SDS011;57837;52.064;113.478;2024-03-02T09:27:51;17.93;;;6.73;;
70414;SDS011;57837;52.064;113.478;2024-03-02T09:30:55;31.50;;;10.05;;
70414;SDS011;57837;52.064;113.478;2024-03-02T09:34:02;25.95;;;9.57;;
70414;SDS011;57837;52.064;113.478;2024-03-02T09:37:08;23.10;;;9.50;;
70414;SDS011;57837;52.064;113.478;2024-03-02T09:40:13;23.88;;;7.78;;
70414;SDS011;57837;52.064;113.478;2024-03-02T09:43:16;24.65;;;8.95;;
70414;SDS011;57837;52.064;113.478;2024-03-02T09:46:20;25.13;;;9.13;;
70414;SDS011;57837;52.064;113.478;2024-03-02T09:49:24;29.80;;;10.80;;
70414;SDS011;57837;52.064;113.478;2024-03-02T09:52:28;48.58;;;14.98;;
70414;SDS011;57837;52.064;113.478;2024-03-02T09:55:31;51.65;;;17.80;;
70414;SDS011;57837;52.064;113.478;2024-03-02T09:58:35;44.03;;;17.60;;
70414;SDS011;57837;52.064;113.478;2024-03-02T10:01:38;59.20;;;20.00;;
70414;SDS011;57837;52.064;113.478;2024-03-02T10:04:41;49.78;;;18.83;;
70414;SDS011;57837;52.064;113.478;2024-03-02T10:07:56;58.43;;;22.17;;
70414;SDS011;57837;52.064;113.478;2024-03-02T10:11:06;63.40;;;26.25;;
70414;SDS011;57837;52.064;113.478;2024-03-02T10:14:10;97.05;;;32.65;;
70414;SDS011;57837;52.064;113.478;2024-03-02T10:17:16;70.32;;;26.25;;
70414;SDS011;57837;52.064;113.478;2024-03-02T10:20:26;72.25;;;23.85;;
70414;SDS011;57837;52.064;113.478;2024-03-02T10:23:35;62.80;;;24.35;;
70414;SDS011;57837;52.064;113.478;2024-03-02T10:26:39;55.70;;;20.38;;
70414;SDS011;57837;52.064;113.478;2024-03-02T10:29:46;56.70;;;22.27;;
70414;SDS011;57837;52.064;113.478;2024-03-02T10:32:50;60.97;;;23.08;;
70414;SDS011;57837;52.064;113.478;2024-03-02T10:35:55;64.53;;;20.58;;
70414;SDS011;57837;52.064;113.478;2024-03-02T10:39:01;165.90;;;57.63;;
70414;SDS011;57837;52.064;113.478;2024-03-02T10:42:06;164.82;;;53.53;;
70414;SDS011;57837;52.064;113.478;2024-03-02T10:45:12;135.75;;;45.30;;
70414;SDS011;57837;52.064;113.478;2024-03-02T10:48:18;143.85;;;48.17;;
70414;SDS011;57837;52.064;113.478;2024-03-02T10:51:21;114.15;;;39.45;;
70414;SDS011;57837;52.064;113.478;2024-03-02T10:54:25;113.90;;;38.67;;
70414;SDS011;57837;52.064;113.478;2024-03-02T10:57:29;112.45;;;40.45;;
70414;SDS011;57837;52.064;113.478;2024-03-02T11:00:42;127.37;;;45.60;;
70414;SDS011;57837;52.064;113.478;2024-03-02T11:03:49;137.23;;;48.03;;
70414;SDS011;57837;52.064;113.478;2024-03-02T11:07:04;153.98;;;51.40;;
70414;SDS011;57837;52.064;113.478;2024-03-02T11:10:10;195.27;;;70.20;;
70414;SDS011;57837;52.064;113.478;2024-03-02T11:13:14;150.23;;;57.17;;
70414;SDS011;57837;52.064;113.478;2024-03-02T11:16:35;116.88;;;43.20;;
70414;SDS011;57837;52.064;113.478;2024-03-02T11:19:40;83.57;;;35.83;;
70414;SDS011;57837;52.064;113.478;2024-03-02T11:22:44;132.57;;;49.65;;
70414;SDS011;57837;52.064;113.478;2024-03-02T11:25:48;137.63;;;51.30;;
70414;SDS011;57837;52.064;113.478;2024-03-02T11:28:51;123.55;;;47.17;;
70414;SDS011;57837;52.064;113.478;2024-03-02T11:31:58;75.77;;;27.80;;
70414;SDS011;57837;52.064;113.478;2024-03-02T11:35:03;80.53;;;31.20;;
70414;SDS011;57837;52.064;113.478;2024-03-02T11:38:07;71.45;;;21.75;;
70414;SDS011;57837;52.064;113.478;2024-03-02T11:41:12;64.63;;;22.67;;
70414;SDS011;57837;52.064;113.478;2024-03-02T11:44:17;78.60;;;28.15;;
70414;SDS011;57837;52.064;113.478;2024-03-02T11:47:46;70.65;;;26.42;;
70414;SDS011;57837;52.064;113.478;2024-03-02T11:50:54;90.40;;;34.40;;
70414;SDS011;57837;52.064;113.478;2024-03-02T11:54:01;91.03;;;31.48;;
70414;SDS011;57837;52.064;113.478;2024-03-02T11:57:07;85.15;;;29.23;;
70414;SDS011;57837;52.064;113.478;2024-03-02T12:00:17;61.17;;;26.65;;
70414;SDS011;57837;52.064;113.478;2024-03-02T12:03:23;70.47;;;28.10;;
70414;SDS011;57837;52.064;113.478;2024-03-02T12:06:29;76.32;;;30.25;;
70414;SDS011;57837;52.064;113.478;2024-03-02T12:09:33;83.07;;;30.33;;
70414;SDS011;57837;52.064;113.478;2024-03-02T12:12:37;76.83;;;33.67;;
70414;SDS011;57837;52.064;113.478;2024-03-02T12:15:40;96.70;;;41.10;;
70414;SDS011;57837;52.064;113.478;2024-03-02T12:18:43;111.43;;;40.33;;
70414;SDS011;57837;52.064;113.478;2024-03-02T12:21:46;108.22;;;37.15;;
70414;SDS011;57837;52.064;113.478;2024-03-02T12:24:50;71.85;;;27.90;;
70414;SDS011;57837;52.064;113.478;2024-03-02T12:27:58;76.10;;;30.05;;
70414;SDS011;57837;52.064;113.478;2024-03-02T12:31:03;111.50;;;36.95;;
70414;SDS011;57837;52.064;113.478;2024-03-02T12:34:06;92.60;;;32.07;;
70414;SDS011;57837;52.064;113.478;2024-03-02T12:37:12;82.40;;;35.92;;
70414;SDS011;57837;52.064;113.478;2024-03-02T12:40:16;66.25;;;25.27;;
70414;SDS011;57837;52.064;113.478;2024-03-02T12:43:21;98.63;;;34.63;;
70414;SDS011;57837;52.064;113.478;2024-03-02T12:46:25;94.55;;;37.08;;
70414;SDS011;57837;52.064;113.478;2024-03-02T12:49:29;62.13;;;25.40;;
70414;SDS011;57837;52.064;113.478;2024-03-02T12:52:34;57.63;;;25.23;;
70414;SDS011;57837;52.064;113.478;2024-03-02T12:55:38;64.30;;;22.30;;
70414;SDS011;57837;52.064;113.478;2024-03-02T12:58:41;49.80;;;21.23;;
70414;SDS011;57837;52.064;113.478;2024-03-02T13:01:51;59.47;;;19.55;;
70414;SDS011;57837;52.064;113.478;2024-03-02T13:05:01;27.47;;;12.17;;
70414;SDS011;57837;52.064;113.478;2024-03-02T13:08:06;39.92;;;19.05;;
70414;SDS011;57837;52.064;113.478;2024-03-02T13:11:11;66.72;;;23.70;;
70414;SDS011;57837;52.064;113.478;2024-03-02T13:14:14;55.00;;;21.77;;
70414;SDS011;57837;52.064;113.478;2024-03-02T13:17:19;69.53;;;27.55;;
70414;SDS011;57837;52.064;113.478;2024-03-02T13:20:23;88.65;;;31.17;;
70414;SDS011;57837;52.064;113.478;2024-03-02T13:23:35;84.45;;;34.90;;
70414;SDS011;57837;52.064;113.478;2024-03-02T13:26:38;93.78;;;35.38;;
70414;SDS011;57837;52.064;113.478;2024-03-02T13:29:43;107.43;;;39.22;;
70414;SDS011;57837;52.064;113.478;2024-03-02T13:32:47;70.63;;;30.52;;
70414;SDS011;57837;52.064;113.478;2024-03-02T13:35:51;73.63;;;27.20;;
70414;SDS011;57837;52.064;113.478;2024-03-02T13:38:56;70.60;;;26.17;;
70414;SDS011;57837;52.064;113.478;2024-03-02T13:42:01;81.28;;;30.25;;
70414;SDS011;57837;52.064;113.478;2024-03-02T13:45:09;66.20;;;25.30;;
70414;SDS011;57837;52.064;113.478;2024-03-02T13:48:12;73.35;;;26.48;;
70414;SDS011;57837;52.064;113.478;2024-03-02T13:51:17;61.15;;;21.55;;
70414;SDS011;57837;52.064;113.478;2024-03-02T13:54:21;52.10;;;18.00;;
70414;SDS011;57837;52.064;113.478;2024-03-02T13:57:25;59.60;;;24.73;;
70414;SDS011;57837;52.064;113.478;2024-03-02T14:00:29;63.38;;;22.52;;
70414;SDS011;57837;52.064;113.478;2024-03-02T14:03:33;69.18;;;23.98;;
70414;SDS011;57837;52.064;113.478;2024-03-02T14:06:37;42.70;;;18.63;;
70414;SDS011;57837;52.064;113.478;2024-03-02T14:10:05;54.10;;;21.60;;
70414;SDS011;57837;52.064;113.478;2024-03-02T14:13:08;58.97;;;20.33;;
70414;SDS011;57837;52.064;113.478;2024-03-02T14:16:12;48.90;;;18.43;;
70414;SDS011;57837;52.064;113.478;2024-03-02T14:19:15;49.83;;;19.88;;
70414;SDS011;57837;52.064;113.478;2024-03-02T14:22:19;52.05;;;20.63;;
70414;SDS011;57837;52.064;113.478;2024-03-02T14:25:23;71.95;;;25.08;;
70414;SDS011;57837;52.064;113.478;2024-03-02T14:28:27;60.80;;;18.67;;
70414;SDS011;57837;52.064;113.478;2024-03-02T14:31:51;62.35;;;23.60;;
70414;SDS011;57837;52.064;113.478;2024-03-02T14:34:55;55.58;;;19.95;;
70414;SDS011;57837;52.064;113.478;2024-03-02T14:37:58;59.53;;;15.37;;
70414;SDS011;57837;52.064;113.478;2024-03-02T14:41:02;82.05;;;29.10;;
70414;SDS011;57837;52.064;113.478;2024-03-02T14:44:06;61.70;;;22.10;;
70414;SDS011;57837;52.064;113.478;2024-03-02T14:47:10;50.37;;;21.20;;
70414;SDS011;57837;52.064;113.478;2024-03-02T14:50:13;50.58;;;18.50;;
70414;SDS011;57837;52.064;113.478;2024-03-02T14:53:19;64.55;;;21.38;;
70414;SDS011;57837;52.064;113.478;2024-03-02T14:56:22;56.33;;;21.27;;
70414;SDS011;57837;52.064;113.478;2024-03-02T14:59:26;71.43;;;27.17;;
70414;SDS011;57837;52.064;113.478;2024-03-02T15:02:31;79.35;;;26.00;;
70414;SDS011;57837;52.064;113.478;2024-03-02T15:05:35;46.15;;;16.15;;
70414;SDS011;57837;52.064;113.478;2024-03-02T15:08:38;64.33;;;23.27;;
70414;SDS011;57837;52.064;113.478;2024-03-02T15:11:44;36.13;;;17.05;;
70414;SDS011;57837;52.064;113.478;2024-03-02T15:14:48;85.55;;;24.52;;
70414;SDS011;57837;52.064;113.478;2024-03-02T15:17:52;58.67;;;19.73;;
70414;SDS011;57837;52.064;113.478;2024-03-02T15:20:56;55.90;;;21.25;;
70414;SDS011;57837;52.064;113.478;2024-03-02T15:23:59;49.40;;;16.38;;
70414;SDS011;57837;52.064;113.478;2024-03-02T15:27:03;39.35;;;14.10;;
70414;SDS011;57837;52.064;113.478;2024-03-02T15:30:08;52.45;;;18.65;;
70414;SDS011;57837;52.064;113.478;2024-03-02T15:33:12;37.75;;;17.10;;
70414;SDS011;57837;52.064;113.478;2024-03-02T15:36:16;39.88;;;15.20;;
70414;SDS011;57837;52.064;113.478;2024-03-02T15:39:20;28.50;;;11.73;;
70414;SDS011;57837;52.064;113.478;2024-03-02T15:42:23;21.77;;;8.88;;
70414;SDS011;57837;52.064;113.478;2024-03-02T15:45:28;29.02;;;13.20;;
70414;SDS011;57837;52.064;113.478;2024-03-02T15:48:36;53.87;;;22.83;;
70414;SDS011;57837;52.064;113.478;2024-03-02T15:51:40;59.60;;;22.08;;
70414;SDS011;57837;52.064;113.478;2024-03-02T15:54:50;50.05;;;18.08;;
70414;SDS011;57837;52.064;113.478;2024-03-02T15:57:54;41.45;;;17.33;;
70414;SDS011;57837;52.064;113.478;2024-03-02T16:00:57;40.70;;;18.30;;
70414;SDS011;57837;52.064;113.478;2024-03-02T16:04:01;19.17;;;9.90;;
70414;SDS011;57837;52.064;113.478;2024-03-02T16:07:05;43.78;;;9.20;;
70414;SDS011;57837;52.064;113.478;2024-03-02T16:10:09;29.00;;;11.20;;
70414;SDS011;57837;52.064;113.478;2024-03-02T16:13:13;35.53;;;7.70;;
70414;SDS011;57837;52.064;113.478;2024-03-02T16:16:17;33.45;;;13.82;;
70414;SDS011;57837;52.064;113.478;2024-03-02T16:19:22;17.77;;;9.27;;
70414;SDS011;57837;52.064;113.478;2024-03-02T16:22:34;29.33;;;10.75;;
70414;SDS011;57837;52.064;113.478;2024-03-02T16:25:38;40.95;;;13.30;;
70414;SDS011;57837;52.064;113.478;2024-03-02T16:28:44;23.92;;;10.63;;
70414;SDS011;57837;52.064;113.478;2024-03-02T16:31:48;9.90;;;4.97;;
70414;SDS011;57837;52.064;113.478;2024-03-02T16:34:52;14.98;;;9.38;;
70414;SDS011;57837;52.064;113.478;2024-03-02T16:37:55;15.82;;;7.80;;
70414;SDS011;57837;52.064;113.478;2024-03-02T16:41:00;23.40;;;6.80;;
70414;SDS011;57837;52.064;113.478;2024-03-02T16:44:04;18.90;;;8.98;;
70414;SDS011;57837;52.064;113.478;2024-03-02T16:47:08;27.40;;;10.73;;
70414;SDS011;57837;52.064;113.478;2024-03-02T16:50:15;37.03;;;12.47;;
70414;SDS011;57837;52.064;113.478;2024-03-02T16:53:19;21.63;;;7.90;;
70414;SDS011;57837;52.064;113.478;2024-03-02T16:56:23;36.33;;;16.38;;
70414;SDS011;57837;52.064;113.478;2024-03-02T16:59:28;29.35;;;12.50;;
70414;SDS011;57837;52.064;113.478;2024-03-02T17:02:31;21.45;;;10.40;;
70414;SDS011;57837;52.064;113.478;2024-03-02T17:05:35;35.35;;;11.25;;
70414;SDS011;57837;52.064;113.478;2024-03-02T17:08:39;6.22;;;3.28;;
70414;SDS011;57837;52.064;113.478;2024-03-02T17:11:42;6.80;;;4.20;;
70414;SDS011;57837;52.064;113.478;2024-03-02T17:14:46;41.22;;;7.40;;
70414;SDS011;57837;52.064;113.478;2024-03-02T17:17:49;23.63;;;9.95;;
70414;SDS011;57837;52.064;113.478;2024-03-02T17:20:52;33.83;;;10.40;;
70414;SDS011;57837;52.064;113.478;2024-03-02T17:23:57;31.30;;;11.13;;
70414;SDS011;57837;52.064;113.478;2024-03-02T17:27:01;12.25;;;5.45;;
70414;SDS011;57837;52.064;113.478;2024-03-02T17:30:05;18.10;;;6.10;;
70414;SDS011;57837;52.064;113.478;2024-03-02T17:33:08;19.52;;;7.97;;
70414;SDS011;57837;52.064;113.478;2024-03-02T17:36:12;4.10;;;2.25;;
70414;SDS011;57837;52.064;113.478;2024-03-02T17:39:17;19.17;;;7.82;;